sensor_id;sensor_type;location;lat;lon;timestamp;P1;P2;P0
55485;PMS5003;71262;-25.924;28.194;2024-01-30T00:00:09;4;4;
55485;PMS5003;71262;-25.924;28.194;2024-01-30T00:02:34;6;5;
55485;PMS5003;71262;-25.924;28.194;2024-01-30T00:04:58;5;5;
55485;PMS5003;71262;-25.924;28.194;2024-01-30T00:07:24;4;4;
55485;PMS5003;71262;-25.924;28.194;2024-01-30T00:09:49;3;3;
55485;PMS5003;71262;-25.924;28.194;2024-01-30T00:12:14;4;4;
55485;PMS5003;71262;-25.924;28.194;2024-01-30T00:14:40;2;2;
55485;PMS5003;71262;-25.924;28.194;2024-01-30T00:17:04;3;3;
55485;PMS5003;71262;-25.924;28.194;2024-01-30T00:19:29;2;2;
55485;PMS5003;71262;-25.924;28.194;2024-01-30T00:21:54;3;3;
55485;PMS5003;71262;-25.924;28.194;2024-01-30T00:24:19;4;3;
55485;PMS5003;71262;-25.924;28.194;2024-01-30T00:26:45;3;3;
55485;PMS5003;71262;-25.924;28.194;2024-01-30T00:29:11;3;3;
55485;PMS5003;71262;-25.924;28.194;2024-01-30T00:31:37;2;2;
55485;PMS5003;71262;-25.924;28.194;2024-01-30T00:34:03;3;3;
55485;PMS5003;71262;-25.924;28.194;2024-01-30T00:36:29;2;2;
55485;PMS5003;71262;-25.924;28.194;2024-01-30T00:38:55;2;2;
55485;PMS5003;71262;-25.924;28.194;2024-01-30T00:41:21;3;3;
55485;PMS5003;71262;-25.924;28.194;2024-01-30T00:43:45;4;4;
55485;PMS5003;71262;-25.924;28.194;2024-01-30T00:46:10;4;4;
55485;PMS5003;71262;-25.924;28.194;2024-01-30T00:48:35;4;4;
55485;PMS5003;71262;-25.924;28.194;2024-01-30T00:51:01;4;4;
55485;PMS5003;71262;-25.924;28.194;2024-01-30T00:53:26;5;5;
55485;PMS5003;71262;-25.924;28.194;2024-01-30T00:55:50;7;7;
55485;PMS5003;71262;-25.924;28.194;2024-01-30T00:58:16;11;11;
55485;PMS5003;71262;-25.924;28.194;2024-01-30T01:00:40;11;11;
55485;PMS5003;71262;-25.924;28.194;2024-01-30T01:03:06;8;8;
55485;PMS5003;71262;-25.924;28.194;2024-01-30T01:05:31;10;9;
55485;PMS5003;71262;-25.924;28.194;2024-01-30T01:07:56;11;10;
55485;PMS5003;71262;-25.924;28.194;2024-01-30T01:10:21;10;10;
55485;PMS5003;71262;-25.924;28.194;2024-01-30T01:12:46;9;9;
55485;PMS5003;71262;-25.924;28.194;2024-01-30T01:15:11;8;8;
55485;PMS5003;71262;-25.924;28.194;2024-01-30T01:17:36;8;8;
55485;PMS5003;71262;-25.924;28.194;2024-01-30T01:20:01;6;6;
55485;PMS5003;71262;-25.924;28.194;2024-01-30T01:22:26;4;4;
55485;PMS5003;71262;-25.924;28.194;2024-01-30T01:24:51;4;4;
55485;PMS5003;71262;-25.924;28.194;2024-01-30T01:27:16;5;5;
55485;PMS5003;71262;-25.924;28.194;2024-01-30T01:29:41;3;3;
55485;PMS5003;71262;-25.924;28.194;2024-01-30T01:32:06;4;4;
55485;PMS5003;71262;-25.924;28.194;2024-01-30T01:34:31;4;4;
55485;PMS5003;71262;-25.924;28.194;2024-01-30T01:36:56;3;3;
55485;PMS5003;71262;-25.924;28.194;2024-01-30T01:39:22;4;4;
55485;PMS5003;71262;-25.924;28.194;2024-01-30T01:41:46;5;4;
55485;PMS5003;71262;-25.924;28.194;2024-01-30T01:44:11;4;4;
55485;PMS5003;71262;-25.924;28.194;2024-01-30T01:46:36;5;4;
55485;PMS5003;71262;-25.924;28.194;2024-01-30T01:49:02;3;3;
55485;PMS5003;71262;-25.924;28.194;2024-01-30T01:51:27;4;4;
55485;PMS5003;71262;-25.924;28.194;2024-01-30T01:53:52;4;4;
55485;PMS5003;71262;-25.924;28.194;2024-01-30T01:56:16;5;5;
55485;PMS5003;71262;-25.924;28.194;2024-01-30T01:58:41;6;6;
55485;PMS5003;71262;-25.924;28.194;2024-01-30T02:01:06;7;7;
55485;PMS5003;71262;-25.924;28.194;2024-01-30T02:03:31;6;6;
55485;PMS5003;71262;-25.924;28.194;2024-01-30T02:05:56;6;6;
55485;PMS5003;71262;-25.924;28.194;2024-01-30T02:08:21;5;5;
55485;PMS5003;71262;-25.924;28.194;2024-01-30T02:10:47;4;4;
55485;PMS5003;71262;-25.924;28.194;2024-01-30T02:13:13;6;6;
55485;PMS5003;71262;-25.924;28.194;2024-01-30T02:15:38;10;10;
55485;PMS5003;71262;-25.924;28.194;2024-01-30T02:18:03;20;20;
55485;PMS5003;71262;-25.924;28.194;2024-01-30T02:20:28;24;24;
55485;PMS5003;71262;-25.924;28.194;2024-01-30T02:22:53;25;25;
55485;PMS5003;71262;-25.924;28.194;2024-01-30T02:25:18;19;19;
55485;PMS5003;71262;-25.924;28.194;2024-01-30T02:27:43;20;20;
55485;PMS5003;71262;-25.924;28.194;2024-01-30T02:30:09;19;18;
55485;PMS5003;71262;-25.924;28.194;2024-01-30T02:32:33;17;17;
55485;PMS5003;71262;-25.924;28.194;2024-01-30T02:34:58;18;18;
55485;PMS5003;71262;-25.924;28.194;2024-01-30T02:37:23;23;23;
55485;PMS5003;71262;-25.924;28.194;2024-01-30T02:39:49;25;25;
55485;PMS5003;71262;-25.924;28.194;2024-01-30T02:42:14;23;23;
55485;PMS5003;71262;-25.924;28.194;2024-01-30T02:44:39;21;21;
55485;PMS5003;71262;-25.924;28.194;2024-01-30T02:47:04;19;19;
55485;PMS5003;71262;-25.924;28.194;2024-01-30T02:49:29;20;20;
55485;PMS5003;71262;-25.924;28.194;2024-01-30T02:51:54;17;17;
55485;PMS5003;71262;-25.924;28.194;2024-01-30T02:54:19;13;13;
55485;PMS5003;71262;-25.924;28.194;2024-01-30T02:56:44;12;12;
55485;PMS5003;71262;-25.924;28.194;2024-01-30T02:59:09;12;12;
55485;PMS5003;71262;-25.924;28.194;2024-01-30T03:04:00;11;11;
55485;PMS5003;71262;-25.924;28.194;2024-01-30T03:06:25;10;10;
55485;PMS5003;71262;-25.924;28.194;2024-01-30T03:08:49;11;11;
55485;PMS5003;71262;-25.924;28.194;2024-01-30T03:11:14;11;11;
55485;PMS5003;71262;-25.924;28.194;2024-01-30T03:13:39;11;11;
55485;PMS5003;71262;-25.924;28.194;2024-01-30T03:16:05;11;11;
55485;PMS5003;71262;-25.924;28.194;2024-01-30T03:18:30;11;11;
55485;PMS5003;71262;-25.924;28.194;2024-01-30T03:20:55;12;12;
55485;PMS5003;71262;-25.924;28.194;2024-01-30T03:23:20;11;11;
55485;PMS5003;71262;-25.924;28.194;2024-01-30T03:25:45;11;11;
55485;PMS5003;71262;-25.924;28.194;2024-01-30T03:28:10;11;11;
55485;PMS5003;71262;-25.924;28.194;2024-01-30T03:30:35;15;15;
55485;PMS5003;71262;-25.924;28.194;2024-01-30T03:33:00;16;16;
55485;PMS5003;71262;-25.924;28.194;2024-01-30T03:35:26;15;15;
55485;PMS5003;71262;-25.924;28.194;2024-01-30T03:37:50;13;13;
55485;PMS5003;71262;-25.924;28.194;2024-01-30T03:40:15;13;13;
55485;PMS5003;71262;-25.924;28.194;2024-01-30T03:42:40;14;14;
55485;PMS5003;71262;-25.924;28.194;2024-01-30T03:45:06;15;15;
55485;PMS5003;71262;-25.924;28.194;2024-01-30T03:47:30;18;18;
55485;PMS5003;71262;-25.924;28.194;2024-01-30T03:49:55;27;27;
55485;PMS5003;71262;-25.924;28.194;2024-01-30T03:52:20;40;40;
55485;PMS5003;71262;-25.924;28.194;2024-01-30T03:54:45;58;58;
55485;PMS5003;71262;-25.924;28.194;2024-01-30T03:57:11;68;68;
55485;PMS5003;71262;-25.924;28.194;2024-01-30T03:59:36;83;83;
55485;PMS5003;71262;-25.924;28.194;2024-01-30T04:02:01;87;86;
55485;PMS5003;71262;-25.924;28.194;2024-01-30T04:04:27;63;63;
55485;PMS5003;71262;-25.924;28.194;2024-01-30T04:06:52;56;56;
55485;PMS5003;71262;-25.924;28.194;2024-01-30T04:09:17;55;55;
55485;PMS5003;71262;-25.924;28.194;2024-01-30T04:11:42;59;59;
55485;PMS5003;71262;-25.924;28.194;2024-01-30T04:14:07;60;60;
55485;PMS5003;71262;-25.924;28.194;2024-01-30T04:16:33;61;60;
55485;PMS5003;71262;-25.924;28.194;2024-01-30T04:18:58;37;37;
55485;PMS5003;71262;-25.924;28.194;2024-01-30T04:21:23;54;54;
55485;PMS5003;71262;-25.924;28.194;2024-01-30T04:23:50;52;52;
55485;PMS5003;71262;-25.924;28.194;2024-01-30T04:26:14;53;53;
55485;PMS5003;71262;-25.924;28.194;2024-01-30T04:28:40;54;54;
55485;PMS5003;71262;-25.924;28.194;2024-01-30T04:31:04;55;55;
55485;PMS5003;71262;-25.924;28.194;2024-01-30T04:33:29;52;52;
55485;PMS5003;71262;-25.924;28.194;2024-01-30T04:35:54;53;53;
55485;PMS5003;71262;-25.924;28.194;2024-01-30T04:38:20;57;57;
55485;PMS5003;71262;-25.924;28.194;2024-01-30T04:40:45;56;56;
55485;PMS5003;71262;-25.924;28.194;2024-01-30T04:43:10;52;52;
55485;PMS5003;71262;-25.924;28.194;2024-01-30T04:45:35;63;63;
55485;PMS5003;71262;-25.924;28.194;2024-01-30T04:48:00;62;62;
55485;PMS5003;71262;-25.924;28.194;2024-01-30T04:50:26;42;35;
55485;PMS5003;71262;-25.924;28.194;2024-01-30T04:52:52;9;7;
55485;PMS5003;71262;-25.924;28.194;2024-01-30T04:55:17;17;16;
55485;PMS5003;71262;-25.924;28.194;2024-01-30T04:57:42;65;65;
55485;PMS5003;71262;-25.924;28.194;2024-01-30T05:00:08;77;76;
55485;PMS5003;71262;-25.924;28.194;2024-01-30T05:02:33;66;65;
55485;PMS5003;71262;-25.924;28.194;2024-01-30T05:04:58;27;27;
55485;PMS5003;71262;-25.924;28.194;2024-01-30T05:07:23;12;12;
55485;PMS5003;71262;-25.924;28.194;2024-01-30T05:09:48;20;15;
55485;PMS5003;71262;-25.924;28.194;2024-01-30T05:12:13;6;5;
55485;PMS5003;71262;-25.924;28.194;2024-01-30T05:14:39;19;19;
55485;PMS5003;71262;-25.924;28.194;2024-01-30T05:17:04;15;14;
55485;PMS5003;71262;-25.924;28.194;2024-01-30T05:19:29;17;17;
55485;PMS5003;71262;-25.924;28.194;2024-01-30T05:21:54;28;13;
55485;PMS5003;71262;-25.924;28.194;2024-01-30T05:24:20;8;5;
55485;PMS5003;71262;-25.924;28.194;2024-01-30T05:26:46;1;1;
55485;PMS5003;71262;-25.924;28.194;2024-01-30T05:29:12;1;1;
55485;PMS5003;71262;-25.924;28.194;2024-01-30T05:31:38;1;1;
55485;PMS5003;71262;-25.924;28.194;2024-01-30T05:34:03;73;42;
55485;PMS5003;71262;-25.924;28.194;2024-01-30T05:36:29;12;7;
55485;PMS5003;71262;-25.924;28.194;2024-01-30T05:38:54;4;4;
55485;PMS5003;71262;-25.924;28.194;2024-01-30T05:41:20;4;4;
55485;PMS5003;71262;-25.924;28.194;2024-01-30T05:43:46;1;1;
55485;PMS5003;71262;-25.924;28.194;2024-01-30T05:46:12;4;3;
55485;PMS5003;71262;-25.924;28.194;2024-01-30T05:48:37;6;5;
55485;PMS5003;71262;-25.924;28.194;2024-01-30T05:51:03;8;6;
55485;PMS5003;71262;-25.924;28.194;2024-01-30T05:53:29;12;7;
55485;PMS5003;71262;-25.924;28.194;2024-01-30T05:55:55;10;7;
55485;PMS5003;71262;-25.924;28.194;2024-01-30T05:58:20;2;2;
55485;PMS5003;71262;-25.924;28.194;2024-01-30T06:00:46;1;1;
55485;PMS5003;71262;-25.924;28.194;2024-01-30T06:03:12;2;2;
55485;PMS5003;71262;-25.924;28.194;2024-01-30T06:05:38;3;2;
55485;PMS5003;71262;-25.924;28.194;2024-01-30T06:08:04;2;2;
55485;PMS5003;71262;-25.924;28.194;2024-01-30T06:10:29;3;2;
55485;PMS5003;71262;-25.924;28.194;2024-01-30T06:12:55;0;0;
55485;PMS5003;71262;-25.924;28.194;2024-01-30T06:15:21;2;2;
55485;PMS5003;71262;-25.924;28.194;2024-01-30T06:17:47;1;1;
55485;PMS5003;71262;-25.924;28.194;2024-01-30T06:20:13;2;2;
55485;PMS5003;71262;-25.924;28.194;2024-01-30T06:22:39;1;1;
55485;PMS5003;71262;-25.924;28.194;2024-01-30T06:25:05;2;2;
55485;PMS5003;71262;-25.924;28.194;2024-01-30T06:27:30;4;2;
55485;PMS5003;71262;-25.924;28.194;2024-01-30T06:29:56;3;3;
55485;PMS5003;71262;-25.924;28.194;2024-01-30T06:32:22;2;2;
55485;PMS5003;71262;-25.924;28.194;2024-01-30T06:34:48;3;2;
55485;PMS5003;71262;-25.924;28.194;2024-01-30T06:37:14;2;2;
55485;PMS5003;71262;-25.924;28.194;2024-01-30T06:39:40;4;3;
55485;PMS5003;71262;-25.924;28.194;2024-01-30T06:42:05;2;2;
55485;PMS5003;71262;-25.924;28.194;2024-01-30T06:44:31;4;3;
55485;PMS5003;71262;-25.924;28.194;2024-01-30T06:46:57;2;2;
55485;PMS5003;71262;-25.924;28.194;2024-01-30T06:49:23;3;3;
55485;PMS5003;71262;-25.924;28.194;2024-01-30T06:51:49;4;4;
55485;PMS5003;71262;-25.924;28.194;2024-01-30T06:54:14;8;6;
55485;PMS5003;71262;-25.924;28.194;2024-01-30T06:56:40;9;5;
55485;PMS5003;71262;-25.924;28.194;2024-01-30T06:59:06;7;6;
55485;PMS5003;71262;-25.924;28.194;2024-01-30T07:01:31;34;33;
55485;PMS5003;71262;-25.924;28.194;2024-01-30T07:03:57;28;20;
55485;PMS5003;71262;-25.924;28.194;2024-01-30T07:06:22;54;46;
55485;PMS5003;71262;-25.924;28.194;2024-01-30T07:08:48;30;26;
55485;PMS5003;71262;-25.924;28.194;2024-01-30T07:13:38;28;26;
55485;PMS5003;71262;-25.924;28.194;2024-01-30T07:16:04;27;25;
55485;PMS5003;71262;-25.924;28.194;2024-01-30T07:18:28;43;42;
55485;PMS5003;71262;-25.924;28.194;2024-01-30T07:20:54;13;9;
55485;PMS5003;71262;-25.924;28.194;2024-01-30T07:23:20;22;17;
55485;PMS5003;71262;-25.924;28.194;2024-01-30T07:25:45;12;7;
55485;PMS5003;71262;-25.924;28.194;2024-01-30T07:28:10;7;6;
55485;PMS5003;71262;-25.924;28.194;2024-01-30T07:30:36;15;13;
55485;PMS5003;71262;-25.924;28.194;2024-01-30T07:33:02;13;11;
55485;PMS5003;71262;-25.924;28.194;2024-01-30T07:35:28;11;11;
55485;PMS5003;71262;-25.924;28.194;2024-01-30T07:37:53;10;8;
55485;PMS5003;71262;-25.924;28.194;2024-01-30T07:40:19;3;3;
55485;PMS5003;71262;-25.924;28.194;2024-01-30T07:42:45;3;3;
55485;PMS5003;71262;-25.924;28.194;2024-01-30T07:45:11;5;4;
55485;PMS5003;71262;-25.924;28.194;2024-01-30T07:47:37;4;4;
55485;PMS5003;71262;-25.924;28.194;2024-01-30T07:50:03;5;4;
55485;PMS5003;71262;-25.924;28.194;2024-01-30T07:52:28;6;5;
55485;PMS5003;71262;-25.924;28.194;2024-01-30T07:54:54;7;7;
55485;PMS5003;71262;-25.924;28.194;2024-01-30T07:57:20;3;3;
55485;PMS5003;71262;-25.924;28.194;2024-01-30T07:59:46;5;2;
55485;PMS5003;71262;-25.924;28.194;2024-01-30T08:02:11;4;3;
55485;PMS5003;71262;-25.924;28.194;2024-01-30T08:04:37;3;2;
55485;PMS5003;71262;-25.924;28.194;2024-01-30T08:07:03;3;2;
55485;PMS5003;71262;-25.924;28.194;2024-01-30T08:09:29;2;1;
55485;PMS5003;71262;-25.924;28.194;2024-01-30T08:11:55;3;1;
55485;PMS5003;71262;-25.924;28.194;2024-01-30T08:14:20;2;0;
55485;PMS5003;71262;-25.924;28.194;2024-01-30T08:16:46;2;2;
55485;PMS5003;71262;-25.924;28.194;2024-01-30T08:19:12;1;1;
55485;PMS5003;71262;-25.924;28.194;2024-01-30T08:21:38;1;1;
55485;PMS5003;71262;-25.924;28.194;2024-01-30T08:24:04;5;5;
55485;PMS5003;71262;-25.924;28.194;2024-01-30T08:26:29;9;9;
55485;PMS5003;71262;-25.924;28.194;2024-01-30T08:28:54;11;11;
55485;PMS5003;71262;-25.924;28.194;2024-01-30T08:31:20;4;4;
55485;PMS5003;71262;-25.924;28.194;2024-01-30T08:33:46;3;3;
55485;PMS5003;71262;-25.924;28.194;2024-01-30T08:36:11;1;1;
55485;PMS5003;71262;-25.924;28.194;2024-01-30T08:38:37;1;1;
55485;PMS5003;71262;-25.924;28.194;2024-01-30T08:41:03;2;0;
55485;PMS5003;71262;-25.924;28.194;2024-01-30T08:43:29;2;1;
55485;PMS5003;71262;-25.924;28.194;2024-01-30T08:45:55;2;1;
55485;PMS5003;71262;-25.924;28.194;2024-01-30T08:48:20;0;0;
55485;PMS5003;71262;-25.924;28.194;2024-01-30T08:50:46;0;0;
55485;PMS5003;71262;-25.924;28.194;2024-01-30T08:53:12;1;0;
55485;PMS5003;71262;-25.924;28.194;2024-01-30T08:55:38;1;1;
55485;PMS5003;71262;-25.924;28.194;2024-01-30T08:58:04;1;1;
55485;PMS5003;71262;-25.924;28.194;2024-01-30T09:00:30;0;0;
55485;PMS5003;71262;-25.924;28.194;2024-01-30T09:02:55;0;0;
55485;PMS5003;71262;-25.924;28.194;2024-01-30T09:05:21;0;0;
55485;PMS5003;71262;-25.924;28.194;2024-01-30T09:07:47;0;0;
55485;PMS5003;71262;-25.924;28.194;2024-01-30T09:10:13;0;0;
55485;PMS5003;71262;-25.924;28.194;2024-01-30T09:12:39;0;0;
55485;PMS5003;71262;-25.924;28.194;2024-01-30T09:15:05;0;0;
55485;PMS5003;71262;-25.924;28.194;2024-01-30T09:17:30;0;0;
55485;PMS5003;71262;-25.924;28.194;2024-01-30T09:19:56;0;0;
55485;PMS5003;71262;-25.924;28.194;2024-01-30T09:22:22;0;0;
55485;PMS5003;71262;-25.924;28.194;2024-01-30T09:24:48;0;0;
55485;PMS5003;71262;-25.924;28.194;2024-01-30T09:27:14;1;0;
55485;PMS5003;71262;-25.924;28.194;2024-01-30T09:29:39;0;0;
55485;PMS5003;71262;-25.924;28.194;2024-01-30T09:32:06;0;0;
55485;PMS5003;71262;-25.924;28.194;2024-01-30T09:34:31;1;0;
55485;PMS5003;71262;-25.924;28.194;2024-01-30T09:36:58;0;0;
55485;PMS5003;71262;-25.924;28.194;2024-01-30T09:39:23;0;0;
55485;PMS5003;71262;-25.924;28.194;2024-01-30T09:41:51;0;0;
55485;PMS5003;71262;-25.924;28.194;2024-01-30T09:44:15;0;0;
55485;PMS5003;71262;-25.924;28.194;2024-01-30T09:46:40;0;0;
55485;PMS5003;71262;-25.924;28.194;2024-01-30T09:49:06;0;0;
55485;PMS5003;71262;-25.924;28.194;2024-01-30T09:51:32;0;0;
55485;PMS5003;71262;-25.924;28.194;2024-01-30T09:53:57;0;0;
55485;PMS5003;71262;-25.924;28.194;2024-01-30T09:56:23;0;0;
55485;PMS5003;71262;-25.924;28.194;2024-01-30T09:58:49;0;0;
55485;PMS5003;71262;-25.924;28.194;2024-01-30T10:01:15;0;0;
55485;PMS5003;71262;-25.924;28.194;2024-01-30T10:03:41;0;0;
55485;PMS5003;71262;-25.924;28.194;2024-01-30T10:06:07;0;0;
55485;PMS5003;71262;-25.924;28.194;2024-01-30T10:08:33;0;0;
55485;PMS5003;71262;-25.924;28.194;2024-01-30T10:10:58;0;0;
55485;PMS5003;71262;-25.924;28.194;2024-01-30T10:13:24;0;0;
55485;PMS5003;71262;-25.924;28.194;2024-01-30T10:15:50;10;8;
55485;PMS5003;71262;-25.924;28.194;2024-01-30T10:18:16;8;7;
55485;PMS5003;71262;-25.924;28.194;2024-01-30T10:20:42;13;11;
55485;PMS5003;71262;-25.924;28.194;2024-01-30T10:23:07;11;8;
55485;PMS5003;71262;-25.924;28.194;2024-01-30T10:25:32;23;21;
55485;PMS5003;71262;-25.924;28.194;2024-01-30T10:27:58;6;6;
55485;PMS5003;71262;-25.924;28.194;2024-01-30T10:30:24;7;7;
55485;PMS5003;71262;-25.924;28.194;2024-01-30T10:32:49;3;3;
55485;PMS5003;71262;-25.924;28.194;2024-01-30T10:35:15;8;8;
55485;PMS5003;71262;-25.924;28.194;2024-01-30T10:37:42;4;4;
55485;PMS5003;71262;-25.924;28.194;2024-01-30T10:40:07;5;3;
55485;PMS5003;71262;-25.924;28.194;2024-01-30T10:42:33;4;3;
55485;PMS5003;71262;-25.924;28.194;2024-01-30T10:45:02;4;3;
55485;PMS5003;71262;-25.924;28.194;2024-01-30T10:47:26;4;4;
55485;PMS5003;71262;-25.924;28.194;2024-01-30T10:49:51;5;5;
55485;PMS5003;71262;-25.924;28.194;2024-01-30T10:52:16;4;4;
55485;PMS5003;71262;-25.924;28.194;2024-01-30T10:54:42;3;3;
55485;PMS5003;71262;-25.924;28.194;2024-01-30T10:57:08;4;3;
55485;PMS5003;71262;-25.924;28.194;2024-01-30T10:59:34;2;2;
55485;PMS5003;71262;-25.924;28.194;2024-01-30T11:01:59;2;2;
55485;PMS5003;71262;-25.924;28.194;2024-01-30T11:04:25;3;3;
55485;PMS5003;71262;-25.924;28.194;2024-01-30T11:06:51;2;2;
55485;PMS5003;71262;-25.924;28.194;2024-01-30T11:09:18;4;2;
55485;PMS5003;71262;-25.924;28.194;2024-01-30T11:14:09;3;2;
55485;PMS5003;71262;-25.924;28.194;2024-01-30T11:16:34;2;2;
55485;PMS5003;71262;-25.924;28.194;2024-01-30T11:19:00;3;3;
55485;PMS5003;71262;-25.924;28.194;2024-01-30T11:21:26;4;3;
55485;PMS5003;71262;-25.924;28.194;2024-01-30T11:23:52;4;3;
55485;PMS5003;71262;-25.924;28.194;2024-01-30T11:26:18;3;2;
55485;PMS5003;71262;-25.924;28.194;2024-01-30T11:28:44;3;2;
55485;PMS5003;71262;-25.924;28.194;2024-01-30T11:31:09;2;2;
55485;PMS5003;71262;-25.924;28.194;2024-01-30T11:33:35;3;2;
55485;PMS5003;71262;-25.924;28.194;2024-01-30T11:36:01;2;2;
55485;PMS5003;71262;-25.924;28.194;2024-01-30T11:38:27;3;3;
55485;PMS5003;71262;-25.924;28.194;2024-01-30T11:40:53;3;3;
55485;PMS5003;71262;-25.924;28.194;2024-01-30T11:43:19;3;3;
55485;PMS5003;71262;-25.924;28.194;2024-01-30T11:45:44;2;2;
55485;PMS5003;71262;-25.924;28.194;2024-01-30T11:48:11;2;2;
55485;PMS5003;71262;-25.924;28.194;2024-01-30T11:50:37;3;3;
55485;PMS5003;71262;-25.924;28.194;2024-01-30T11:53:02;2;2;
55485;PMS5003;71262;-25.924;28.194;2024-01-30T11:55:29;2;2;
55485;PMS5003;71262;-25.924;28.194;2024-01-30T11:57:55;4;3;
55485;PMS5003;71262;-25.924;28.194;2024-01-30T12:00:20;3;3;
55485;PMS5003;71262;-25.924;28.194;2024-01-30T12:02:49;5;5;
55485;PMS5003;71262;-25.924;28.194;2024-01-30T12:05:11;2;2;
55485;PMS5003;71262;-25.924;28.194;2024-01-30T12:07:37;4;3;
55485;PMS5003;71262;-25.924;28.194;2024-01-30T12:10:03;4;3;
55485;PMS5003;71262;-25.924;28.194;2024-01-30T12:12:29;3;2;
55485;PMS5003;71262;-25.924;28.194;2024-01-30T12:14:55;4;3;
55485;PMS5003;71262;-25.924;28.194;2024-01-30T12:17:25;3;3;
55485;PMS5003;71262;-25.924;28.194;2024-01-30T12:19:46;3;3;
55485;PMS5003;71262;-25.924;28.194;2024-01-30T12:22:12;3;3;
55485;PMS5003;71262;-25.924;28.194;2024-01-30T12:24:38;3;3;
55485;PMS5003;71262;-25.924;28.194;2024-01-30T12:27:04;8;7;
55485;PMS5003;71262;-25.924;28.194;2024-01-30T12:29:32;6;5;
55485;PMS5003;71262;-25.924;28.194;2024-01-30T12:31:55;5;5;
55485;PMS5003;71262;-25.924;28.194;2024-01-30T12:34:21;4;4;
55485;PMS5003;71262;-25.924;28.194;2024-01-30T12:36:47;19;17;
55485;PMS5003;71262;-25.924;28.194;2024-01-30T12:39:12;14;12;
55485;PMS5003;71262;-25.924;28.194;2024-01-30T12:41:38;11;9;
55485;PMS5003;71262;-25.924;28.194;2024-01-30T12:44:04;17;13;
55485;PMS5003;71262;-25.924;28.194;2024-01-30T12:46:29;10;9;
55485;PMS5003;71262;-25.924;28.194;2024-01-30T12:48:55;22;16;
55485;PMS5003;71262;-25.924;28.194;2024-01-30T12:51:21;18;17;
55485;PMS5003;71262;-25.924;28.194;2024-01-30T12:53:46;17;14;
55485;PMS5003;71262;-25.924;28.194;2024-01-30T12:56:11;12;12;
55485;PMS5003;71262;-25.924;28.194;2024-01-30T12:58:36;15;12;
55485;PMS5003;71262;-25.924;28.194;2024-01-30T13:01:02;9;9;
55485;PMS5003;71262;-25.924;28.194;2024-01-30T13:03:28;11;9;
55485;PMS5003;71262;-25.924;28.194;2024-01-30T13:05:54;13;7;
55485;PMS5003;71262;-25.924;28.194;2024-01-30T13:08:19;8;6;
55485;PMS5003;71262;-25.924;28.194;2024-01-30T13:10:45;7;7;
55485;PMS5003;71262;-25.924;28.194;2024-01-30T13:13:11;8;7;
55485;PMS5003;71262;-25.924;28.194;2024-01-30T13:15:37;9;8;
55485;PMS5003;71262;-25.924;28.194;2024-01-30T13:18:02;9;8;
55485;PMS5003;71262;-25.924;28.194;2024-01-30T13:20:28;9;9;
55485;PMS5003;71262;-25.924;28.194;2024-01-30T13:22:54;19;11;
55485;PMS5003;71262;-25.924;28.194;2024-01-30T13:25:20;11;9;
55485;PMS5003;71262;-25.924;28.194;2024-01-30T13:27:46;10;9;
55485;PMS5003;71262;-25.924;28.194;2024-01-30T13:30:11;12;11;
55485;PMS5003;71262;-25.924;28.194;2024-01-30T13:32:37;10;9;
55485;PMS5003;71262;-25.924;28.194;2024-01-30T13:35:03;10;9;
55485;PMS5003;71262;-25.924;28.194;2024-01-30T13:37:28;12;12;
55485;PMS5003;71262;-25.924;28.194;2024-01-30T13:39:53;13;11;
55485;PMS5003;71262;-25.924;28.194;2024-01-30T13:42:18;13;13;
55485;PMS5003;71262;-25.924;28.194;2024-01-30T13:44:43;12;12;
55485;PMS5003;71262;-25.924;28.194;2024-01-30T13:47:09;8;8;
55485;PMS5003;71262;-25.924;28.194;2024-01-30T13:49:34;12;10;
55485;PMS5003;71262;-25.924;28.194;2024-01-30T13:51:59;10;10;
55485;PMS5003;71262;-25.924;28.194;2024-01-30T13:54:24;8;8;
55485;PMS5003;71262;-25.924;28.194;2024-01-30T13:56:50;12;11;
55485;PMS5003;71262;-25.924;28.194;2024-01-30T13:59:15;10;10;
55485;PMS5003;71262;-25.924;28.194;2024-01-30T14:01:40;8;7;
55485;PMS5003;71262;-25.924;28.194;2024-01-30T14:04:06;9;8;
55485;PMS5003;71262;-25.924;28.194;2024-01-30T14:06:32;8;8;
55485;PMS5003;71262;-25.924;28.194;2024-01-30T14:08:58;11;9;
55485;PMS5003;71262;-25.924;28.194;2024-01-30T14:11:23;13;11;
55485;PMS5003;71262;-25.924;28.194;2024-01-30T14:13:49;12;11;
55485;PMS5003;71262;-25.924;28.194;2024-01-30T14:16:14;12;11;
55485;PMS5003;71262;-25.924;28.194;2024-01-30T14:18:39;13;11;
55485;PMS5003;71262;-25.924;28.194;2024-01-30T14:21:04;9;9;
55485;PMS5003;71262;-25.924;28.194;2024-01-30T14:23:30;9;9;
55485;PMS5003;71262;-25.924;28.194;2024-01-30T14:25:55;10;9;
55485;PMS5003;71262;-25.924;28.194;2024-01-30T14:28:21;10;9;
55485;PMS5003;71262;-25.924;28.194;2024-01-30T14:30:47;10;10;
55485;PMS5003;71262;-25.924;28.194;2024-01-30T14:33:12;15;13;
55485;PMS5003;71262;-25.924;28.194;2024-01-30T14:35:39;9;9;
55485;PMS5003;71262;-25.924;28.194;2024-01-30T14:38:04;16;13;
55485;PMS5003;71262;-25.924;28.194;2024-01-30T14:40:29;11;9;
55485;PMS5003;71262;-25.924;28.194;2024-01-30T14:42:55;13;12;
55485;PMS5003;71262;-25.924;28.194;2024-01-30T14:45:20;12;12;
55485;PMS5003;71262;-25.924;28.194;2024-01-30T14:47:46;11;9;
55485;PMS5003;71262;-25.924;28.194;2024-01-30T14:50:12;10;9;
55485;PMS5003;71262;-25.924;28.194;2024-01-30T14:52:38;11;10;
55485;PMS5003;71262;-25.924;28.194;2024-01-30T14:55:04;11;9;
55485;PMS5003;71262;-25.924;28.194;2024-01-30T14:57:28;14;13;
55485;PMS5003;71262;-25.924;28.194;2024-01-30T14:59:54;12;11;
55485;PMS5003;71262;-25.924;28.194;2024-01-30T15:02:20;17;16;
55485;PMS5003;71262;-25.924;28.194;2024-01-30T15:04:46;14;10;
55485;PMS5003;71262;-25.924;28.194;2024-01-30T15:07:11;10;10;
55485;PMS5003;71262;-25.924;28.194;2024-01-30T15:09:37;10;10;
55485;PMS5003;71262;-25.924;28.194;2024-01-30T15:12:03;10;9;
55485;PMS5003;71262;-25.924;28.194;2024-01-30T15:14:29;7;6;
55485;PMS5003;71262;-25.924;28.194;2024-01-30T15:16:54;7;7;
55485;PMS5003;71262;-25.924;28.194;2024-01-30T15:19:20;7;7;
55485;PMS5003;71262;-25.924;28.194;2024-01-30T15:21:45;8;7;
55485;PMS5003;71262;-25.924;28.194;2024-01-30T15:24:11;9;7;
55485;PMS5003;71262;-25.924;28.194;2024-01-30T15:26:37;7;6;
55485;PMS5003;71262;-25.924;28.194;2024-01-30T15:29:03;6;5;
55485;PMS5003;71262;-25.924;28.194;2024-01-30T15:31:29;4;4;
55485;PMS5003;71262;-25.924;28.194;2024-01-30T15:33:54;9;6;
55485;PMS5003;71262;-25.924;28.194;2024-01-30T15:36:20;7;7;
55485;PMS5003;71262;-25.924;28.194;2024-01-30T15:38:46;6;5;
55485;PMS5003;71262;-25.924;28.194;2024-01-30T15:41:12;9;8;
55485;PMS5003;71262;-25.924;28.194;2024-01-30T15:43:38;6;6;
55485;PMS5003;71262;-25.924;28.194;2024-01-30T15:46:04;3;3;
55485;PMS5003;71262;-25.924;28.194;2024-01-30T15:48:30;5;4;
55485;PMS5003;71262;-25.924;28.194;2024-01-30T15:50:55;5;5;
55485;PMS5003;71262;-25.924;28.194;2024-01-30T15:53:21;4;4;
55485;PMS5003;71262;-25.924;28.194;2024-01-30T15:55:47;5;5;
55485;PMS5003;71262;-25.924;28.194;2024-01-30T15:58:13;4;4;
55485;PMS5003;71262;-25.924;28.194;2024-01-30T16:00:39;7;7;